sensor_id;sensor_type;location;lat;lon;timestamp;temperature;humidity
67868;SHT31;54672;46.096;14.470;2022-11-14T00:00:12;8.91;91.77
67868;SHT31;54672;46.096;14.470;2022-11-14T00:02:38;8.94;91.63
67868;SHT31;54672;46.096;14.470;2022-11-14T00:05:05;8.93;91.47
67868;SHT31;54672;46.096;14.470;2022-11-14T00:07:33;8.96;90.96
67868;SHT31;54672;46.096;14.470;2022-11-14T00:09:58;8.99;90.92
67868;SHT31;54672;46.096;14.470;2022-11-14T00:12:24;9.06;90.71
67868;SHT31;54672;46.096;14.470;2022-11-14T00:14:49;9.07;90.56
67868;SHT31;54672;46.096;14.470;2022-11-14T00:17:16;9.01;90.47
67868;SHT31;54672;46.096;14.470;2022-11-14T00:19:42;9.01;90.44
67868;SHT31;54672;46.096;14.470;2022-11-14T00:22:07;9.06;90.28
67868;SHT31;54672;46.096;14.470;2022-11-14T00:24:33;8.87;90.75
67868;SHT31;54672;46.096;14.470;2022-11-14T00:26:58;8.77;91.44
67868;SHT31;54672;46.096;14.470;2022-11-14T00:29:24;8.73;91.86
67868;SHT31;54672;46.096;14.470;2022-11-14T00:31:49;8.70;91.99
67868;SHT31;54672;46.096;14.470;2022-11-14T00:34:15;8.63;91.87
67868;SHT31;54672;46.096;14.470;2022-11-14T00:36:40;8.62;92.02
67868;SHT31;54672;46.096;14.470;2022-11-14T00:39:05;8.60;91.88
67868;SHT31;54672;46.096;14.470;2022-11-14T00:41:31;8.65;91.85
67868;SHT31;54672;46.096;14.470;2022-11-14T00:43:56;8.63;92.40
67868;SHT31;54672;46.096;14.470;2022-11-14T00:46:22;8.66;92.37
67868;SHT31;54672;46.096;14.470;2022-11-14T00:48:47;8.55;93.09
67868;SHT31;54672;46.096;14.470;2022-11-14T00:51:12;8.65;93.06
67868;SHT31;54672;46.096;14.470;2022-11-14T00:53:38;8.65;93.02
67868;SHT31;54672;46.096;14.470;2022-11-14T00:56:04;8.65;92.58
67868;SHT31;54672;46.096;14.470;2022-11-14T00:58:29;8.65;92.45
67868;SHT31;54672;46.096;14.470;2022-11-14T01:00:55;8.67;92.43
67868;SHT31;54672;46.096;14.470;2022-11-14T01:03:20;8.72;92.42
67868;SHT31;54672;46.096;14.470;2022-11-14T01:05:47;8.76;92.17
67868;SHT31;54672;46.096;14.470;2022-11-14T01:08:15;8.79;91.72
67868;SHT31;54672;46.096;14.470;2022-11-14T01:10:43;8.79;91.42
67868;SHT31;54672;46.096;14.470;2022-11-14T01:13:09;8.80;91.27
67868;SHT31;54672;46.096;14.470;2022-11-14T01:15:39;8.79;91.19
67868;SHT31;54672;46.096;14.470;2022-11-14T01:18:05;8.79;91.41
67868;SHT31;54672;46.096;14.470;2022-11-14T01:20:30;8.79;91.15
67868;SHT31;54672;46.096;14.470;2022-11-14T01:22:56;8.75;91.25
67868;SHT31;54672;46.096;14.470;2022-11-14T01:25:21;8.77;90.98
67868;SHT31;54672;46.096;14.470;2022-11-14T01:27:46;8.76;90.89
67868;SHT31;54672;46.096;14.470;2022-11-14T01:30:12;8.75;90.88
67868;SHT31;54672;46.096;14.470;2022-11-14T01:32:38;8.80;90.96
67868;SHT31;54672;46.096;14.470;2022-11-14T01:35:03;8.76;91.16
67868;SHT31;54672;46.096;14.470;2022-11-14T01:37:29;8.75;91.26
67868;SHT31;54672;46.096;14.470;2022-11-14T01:39:56;8.72;91.47
67868;SHT31;54672;46.096;14.470;2022-11-14T01:42:22;8.76;91.38
67868;SHT31;54672;46.096;14.470;2022-11-14T01:44:50;8.70;91.63
67868;SHT31;54672;46.096;14.470;2022-11-14T01:47:19;8.73;91.31
67868;SHT31;54672;46.096;14.470;2022-11-14T01:49:48;8.76;91.43
67868;SHT31;54672;46.096;14.470;2022-11-14T01:52:21;8.77;91.50
67868;SHT31;54672;46.096;14.470;2022-11-14T01:54:51;8.83;91.48
67868;SHT31;54672;46.096;14.470;2022-11-14T01:57:22;8.81;91.28
67868;SHT31;54672;46.096;14.470;2022-11-14T01:59:51;8.83;91.42
67868;SHT31;54672;46.096;14.470;2022-11-14T02:02:21;8.76;91.64
67868;SHT31;54672;46.096;14.470;2022-11-14T02:04:55;8.76;91.75
67868;SHT31;54672;46.096;14.470;2022-11-14T02:07:23;8.73;91.98
67868;SHT31;54672;46.096;14.470;2022-11-14T02:09:50;8.69;92.07
67868;SHT31;54672;46.096;14.470;2022-11-14T02:12:17;8.63;92.10
67868;SHT31;54672;46.096;14.470;2022-11-14T02:14:44;8.63;92.57
67868;SHT31;54672;46.096;14.470;2022-11-14T02:17:12;8.63;92.87
67868;SHT31;54672;46.096;14.470;2022-11-14T02:20:13;8.60;93.21
67868;SHT31;54672;46.096;14.470;2022-11-14T02:22:32;8.57;93.26
67868;SHT31;54672;46.096;14.470;2022-11-14T02:24:57;8.69;93.15
67868;SHT31;54672;46.096;14.470;2022-11-14T02:27:22;8.67;92.91
67868;SHT31;54672;46.096;14.470;2022-11-14T02:29:48;8.63;93.21
67868;SHT31;54672;46.096;14.470;2022-11-14T02:32:13;8.65;93.30
67868;SHT31;54672;46.096;14.470;2022-11-14T02:34:39;8.69;93.17
67868;SHT31;54672;46.096;14.470;2022-11-14T02:37:05;8.65;93.04
67868;SHT31;54672;46.096;14.470;2022-11-14T02:39:30;8.59;93.42
67868;SHT31;54672;46.096;14.470;2022-11-14T02:41:56;8.50;93.73
67868;SHT31;54672;46.096;14.470;2022-11-14T02:44:21;8.45;93.97
67868;SHT31;54672;46.096;14.470;2022-11-14T02:46:47;8.44;94.26
67868;SHT31;54672;46.096;14.470;2022-11-14T02:49:12;8.45;94.00
67868;SHT31;54672;46.096;14.470;2022-11-14T02:51:38;8.48;94.07
67868;SHT31;54672;46.096;14.470;2022-11-14T02:54:03;8.46;93.92
67868;SHT31;54672;46.096;14.470;2022-11-14T02:56:29;8.55;93.94
67868;SHT31;54672;46.096;14.470;2022-11-14T02:58:54;8.56;93.93
67868;SHT31;54672;46.096;14.470;2022-11-14T03:01:19;8.60;93.86
67868;SHT31;54672;46.096;14.470;2022-11-14T03:03:46;8.59;94.02
67868;SHT31;54672;46.096;14.470;2022-11-14T03:06:11;8.56;93.85
67868;SHT31;54672;46.096;14.470;2022-11-14T03:08:37;8.59;93.81
67868;SHT31;54672;46.096;14.470;2022-11-14T03:11:07;8.56;93.81
67868;SHT31;54672;46.096;14.470;2022-11-14T03:13:33;8.57;93.80
67868;SHT31;54672;46.096;14.470;2022-11-14T03:16:06;8.56;93.81
67868;SHT31;54672;46.096;14.470;2022-11-14T03:18:31;8.60;93.69
67868;SHT31;54672;46.096;14.470;2022-11-14T03:21:04;8.59;93.70
67868;SHT31;54672;46.096;14.470;2022-11-14T03:23:30;8.66;93.57
67868;SHT31;54672;46.096;14.470;2022-11-14T03:25:59;8.67;93.35
67868;SHT31;54672;46.096;14.470;2022-11-14T03:28:24;8.67;93.76
67868;SHT31;54672;46.096;14.470;2022-11-14T03:30:49;8.72;93.62
67868;SHT31;54672;46.096;14.470;2022-11-14T03:33:15;8.75;93.75
67868;SHT31;54672;46.096;14.470;2022-11-14T03:35:43;8.75;93.83
67868;SHT31;54672;46.096;14.470;2022-11-14T03:38:09;8.72;94.05
67868;SHT31;54672;46.096;14.470;2022-11-14T03:40:38;8.77;94.64
67868;SHT31;54672;46.096;14.470;2022-11-14T03:43:04;8.75;94.95
67868;SHT31;54672;46.096;14.470;2022-11-14T03:45:29;8.76;95.02
67868;SHT31;54672;46.096;14.470;2022-11-14T03:47:55;8.59;95.15
67868;SHT31;54672;46.096;14.470;2022-11-14T03:50:20;8.32;96.29
67868;SHT31;54672;46.096;14.470;2022-11-14T03:52:48;8.31;96.30
67868;SHT31;54672;46.096;14.470;2022-11-14T03:55:13;8.38;96.14
67868;SHT31;54672;46.096;14.470;2022-11-14T03:57:39;8.48;96.25
67868;SHT31;54672;46.096;14.470;2022-11-14T04:00:05;8.53;96.37
67868;SHT31;54672;46.096;14.470;2022-11-14T04:02:30;8.56;96.29
67868;SHT31;54672;46.096;14.470;2022-11-14T04:04:56;8.55;96.14
67868;SHT31;54672;46.096;14.470;2022-11-14T04:07:21;8.57;96.00
67868;SHT31;54672;46.096;14.470;2022-11-14T04:09:47;8.55;96.13
67868;SHT31;54672;46.096;14.470;2022-11-14T04:12:12;8.49;96.50
67868;SHT31;54672;46.096;14.470;2022-11-14T04:14:38;8.49;96.46
67868;SHT31;54672;46.096;14.470;2022-11-14T04:17:03;8.48;96.46
67868;SHT31;54672;46.096;14.470;2022-11-14T04:19:28;8.48;96.64
67868;SHT31;54672;46.096;14.470;2022-11-14T04:21:54;8.44;97.00
67868;SHT31;54672;46.096;14.470;2022-11-14T04:24:19;8.48;97.09
67868;SHT31;54672;46.096;14.470;2022-11-14T04:26:45;8.49;97.06
67868;SHT31;54672;46.096;14.470;2022-11-14T04:29:10;8.53;97.07
67868;SHT31;54672;46.096;14.470;2022-11-14T04:31:35;8.55;97.02
67868;SHT31;54672;46.096;14.470;2022-11-14T04:34:01;8.55;96.89
67868;SHT31;54672;46.096;14.470;2022-11-14T04:36:26;8.57;96.68
67868;SHT31;54672;46.096;14.470;2022-11-14T04:38:52;8.56;96.57
67868;SHT31;54672;46.096;14.470;2022-11-14T04:41:17;8.59;96.65
67868;SHT31;54672;46.096;14.470;2022-11-14T04:43:42;8.57;96.69
67868;SHT31;54672;46.096;14.470;2022-11-14T04:46:08;8.44;96.38
67868;SHT31;54672;46.096;14.470;2022-11-14T04:48:34;8.29;96.72
67868;SHT31;54672;46.096;14.470;2022-11-14T04:50:59;8.24;97.03
67868;SHT31;54672;46.096;14.470;2022-11-14T04:53:24;8.14;97.65
67868;SHT31;54672;46.096;14.470;2022-11-14T04:55:50;8.09;97.78
67868;SHT31;54672;46.096;14.470;2022-11-14T04:58:15;8.09;98.14
67868;SHT31;54672;46.096;14.470;2022-11-14T05:00:41;7.99;98.53
67868;SHT31;54672;46.096;14.470;2022-11-14T05:03:07;7.95;98.64
67868;SHT31;54672;46.096;14.470;2022-11-14T05:05:32;8.01;98.83
67868;SHT31;54672;46.096;14.470;2022-11-14T05:07:58;8.12;98.66
67868;SHT31;54672;46.096;14.470;2022-11-14T05:10:23;8.21;98.46
67868;SHT31;54672;46.096;14.470;2022-11-14T05:12:52;8.28;98.33
67868;SHT31;54672;46.096;14.470;2022-11-14T05:15:18;8.32;98.15
67868;SHT31;54672;46.096;14.470;2022-11-14T05:17:43;8.26;98.07
67868;SHT31;54672;46.096;14.470;2022-11-14T05:20:09;8.32;98.04
67868;SHT31;54672;46.096;14.470;2022-11-14T05:22:34;8.39;97.79
67868;SHT31;54672;46.096;14.470;2022-11-14T05:25:00;8.34;97.21
67868;SHT31;54672;46.096;14.470;2022-11-14T05:27:25;8.11;97.85
67868;SHT31;54672;46.096;14.470;2022-11-14T05:29:51;8.07;98.03
67868;SHT31;54672;46.096;14.470;2022-11-14T05:32:16;8.07;98.33
67868;SHT31;54672;46.096;14.470;2022-11-14T05:34:41;8.09;98.38
67868;SHT31;54672;46.096;14.470;2022-11-14T05:37:07;8.20;98.29
67868;SHT31;54672;46.096;14.470;2022-11-14T05:39:32;8.29;98.16
67868;SHT31;54672;46.096;14.470;2022-11-14T05:41:58;8.38;98.06
67868;SHT31;54672;46.096;14.470;2022-11-14T05:44:23;8.44;97.68
67868;SHT31;54672;46.096;14.470;2022-11-14T05:46:49;8.50;97.63
67868;SHT31;54672;46.096;14.470;2022-11-14T05:49:14;8.52;97.38
67868;SHT31;54672;46.096;14.470;2022-11-14T05:51:39;8.50;97.28
67868;SHT31;54672;46.096;14.470;2022-11-14T05:54:05;8.55;97.16
67868;SHT31;54672;46.096;14.470;2022-11-14T05:56:30;8.60;97.08
67868;SHT31;54672;46.096;14.470;2022-11-14T05:58:55;8.56;96.42
67868;SHT31;54672;46.096;14.470;2022-11-14T06:01:21;8.29;96.98
67868;SHT31;54672;46.096;14.470;2022-11-14T06:03:47;8.21;97.86
67868;SHT31;54672;46.096;14.470;2022-11-14T06:06:15;8.11;98.55
67868;SHT31;54672;46.096;14.470;2022-11-14T06:08:41;8.09;98.82
67868;SHT31;54672;46.096;14.470;2022-11-14T06:11:13;8.05;98.66
67868;SHT31;54672;46.096;14.470;2022-11-14T06:13:39;8.05;98.49
67868;SHT31;54672;46.096;14.470;2022-11-14T06:16:07;8.04;98.77
67868;SHT31;54672;46.096;14.470;2022-11-14T06:18:35;8.02;99.07
67868;SHT31;54672;46.096;14.470;2022-11-14T06:21:02;8.07;99.16
67868;SHT31;54672;46.096;14.470;2022-11-14T06:23:28;8.04;99.11
67868;SHT31;54672;46.096;14.470;2022-11-14T06:25:58;8.14;99.01
67868;SHT31;54672;46.096;14.470;2022-11-14T06:28:24;8.22;98.70
67868;SHT31;54672;46.096;14.470;2022-11-14T06:30:49;8.29;98.41
67868;SHT31;54672;46.096;14.470;2022-11-14T06:33:14;8.34;97.93
67868;SHT31;54672;46.096;14.470;2022-11-14T06:35:40;8.42;97.76
67868;SHT31;54672;46.096;14.470;2022-11-14T06:38:05;8.42;97.49
67868;SHT31;54672;46.096;14.470;2022-11-14T06:40:30;8.44;97.43
67868;SHT31;54672;46.096;14.470;2022-11-14T06:42:56;8.48;97.31
67868;SHT31;54672;46.096;14.470;2022-11-14T06:45:21;8.53;96.97
67868;SHT31;54672;46.096;14.470;2022-11-14T06:47:46;8.55;96.78
67868;SHT31;54672;46.096;14.470;2022-11-14T06:50:12;8.52;96.63
67868;SHT31;54672;46.096;14.470;2022-11-14T06:52:37;8.57;96.96
67868;SHT31;54672;46.096;14.470;2022-11-14T06:55:03;8.63;96.45
67868;SHT31;54672;46.096;14.470;2022-11-14T06:57:29;8.49;96.78
67868;SHT31;54672;46.096;14.470;2022-11-14T06:59:54;8.36;97.44
67868;SHT31;54672;46.096;14.470;2022-11-14T07:02:20;8.42;97.50
67868;SHT31;54672;46.096;14.470;2022-11-14T07:04:45;8.45;96.87
67868;SHT31;54672;46.096;14.470;2022-11-14T07:07:10;8.48;96.87
67868;SHT31;54672;46.096;14.470;2022-11-14T07:09:36;8.60;96.78
67868;SHT31;54672;46.096;14.470;2022-11-14T07:12:01;8.65;96.27
67868;SHT31;54672;46.096;14.470;2022-11-14T07:14:27;8.66;96.26
67868;SHT31;54672;46.096;14.470;2022-11-14T07:16:53;8.75;96.16
67868;SHT31;54672;46.096;14.470;2022-11-14T07:19:18;8.63;96.39
67868;SHT31;54672;46.096;14.470;2022-11-14T07:21:44;8.77;96.41
67868;SHT31;54672;46.096;14.470;2022-11-14T07:24:09;8.80;96.30
67868;SHT31;54672;46.096;14.470;2022-11-14T07:26:34;8.84;95.83
67868;SHT31;54672;46.096;14.470;2022-11-14T07:29:00;8.84;96.05
67868;SHT31;54672;46.096;14.470;2022-11-14T07:31:25;8.72;96.56
67868;SHT31;54672;46.096;14.470;2022-11-14T07:33:51;8.87;96.20
67868;SHT31;54672;46.096;14.470;2022-11-14T07:36:17;9.00;96.00
67868;SHT31;54672;46.096;14.470;2022-11-14T07:38:42;9.00;96.05
67868;SHT31;54672;46.096;14.470;2022-11-14T07:41:13;9.11;95.88
67868;SHT31;54672;46.096;14.470;2022-11-14T07:43:39;9.24;95.43
67868;SHT31;54672;46.096;14.470;2022-11-14T07:46:10;9.32;94.38
67868;SHT31;54672;46.096;14.470;2022-11-14T07:48:36;9.41;94.13
67868;SHT31;54672;46.096;14.470;2022-11-14T07:51:03;9.45;93.94
67868;SHT31;54672;46.096;14.470;2022-11-14T07:53:29;9.41;93.37
67868;SHT31;54672;46.096;14.470;2022-11-14T07:55:55;9.41;93.70
67868;SHT31;54672;46.096;14.470;2022-11-14T07:58:21;9.54;93.49
67868;SHT31;54672;46.096;14.470;2022-11-14T08:00:46;9.61;93.24
67868;SHT31;54672;46.096;14.470;2022-11-14T08:03:12;9.48;93.48
67868;SHT31;54672;46.096;14.470;2022-11-14T08:05:37;9.51;93.29
67868;SHT31;54672;46.096;14.470;2022-11-14T08:08:03;9.41;92.70
67868;SHT31;54672;46.096;14.470;2022-11-14T08:10:29;9.28;93.68
67868;SHT31;54672;46.096;14.470;2022-11-14T08:13:02;9.17;93.52
67868;SHT31;54672;46.096;14.470;2022-11-14T08:15:29;8.88;94.56
67868;SHT31;54672;46.096;14.470;2022-11-14T08:17:58;8.99;94.56
67868;SHT31;54672;46.096;14.470;2022-11-14T08:20:24;9.17;94.54
67868;SHT31;54672;46.096;14.470;2022-11-14T08:22:50;9.31;94.30
67868;SHT31;54672;46.096;14.470;2022-11-14T08:25:16;9.28;93.37
67868;SHT31;54672;46.096;14.470;2022-11-14T08:27:41;9.17;93.95
67868;SHT31;54672;46.096;14.470;2022-11-14T08:30:07;9.13;94.22
67868;SHT31;54672;46.096;14.470;2022-11-14T08:32:33;9.14;94.59
67868;SHT31;54672;46.096;14.470;2022-11-14T08:34:59;9.20;94.21
67868;SHT31;54672;46.096;14.470;2022-11-14T08:37:24;9.31;93.99
67868;SHT31;54672;46.096;14.470;2022-11-14T08:39:49;9.32;93.85
67868;SHT31;54672;46.096;14.470;2022-11-14T08:42:15;9.35;93.36
67868;SHT31;54672;46.096;14.470;2022-11-14T08:44:40;9.51;92.93
67868;SHT31;54672;46.096;14.470;2022-11-14T08:47:06;9.48;92.73
67868;SHT31;54672;46.096;14.470;2022-11-14T08:49:31;9.45;93.44
67868;SHT31;54672;46.096;14.470;2022-11-14T08:51:56;9.14;94.09
67868;SHT31;54672;46.096;14.470;2022-11-14T08:54:22;9.15;94.50
67868;SHT31;54672;46.096;14.470;2022-11-14T08:56:47;9.18;94.37
67868;SHT31;54672;46.096;14.470;2022-11-14T08:59:13;9.35;94.32
67868;SHT31;54672;46.096;14.470;2022-11-14T09:01:38;9.35;93.99
67868;SHT31;54672;46.096;14.470;2022-11-14T09:04:03;9.30;94.52
67868;SHT31;54672;46.096;14.470;2022-11-14T09:06:29;9.37;92.60
67868;SHT31;54672;46.096;14.470;2022-11-14T09:08:55;9.56;92.24
67868;SHT31;54672;46.096;14.470;2022-11-14T09:11:20;9.35;92.77
67868;SHT31;54672;46.096;14.470;2022-11-14T09:13:46;9.35;91.66
67868;SHT31;54672;46.096;14.470;2022-11-14T09:16:11;9.35;91.95
67868;SHT31;54672;46.096;14.470;2022-11-14T09:18:36;9.58;91.35
67868;SHT31;54672;46.096;14.470;2022-11-14T09:21:04;9.86;90.60
67868;SHT31;54672;46.096;14.470;2022-11-14T09:23:30;9.92;90.81
67868;SHT31;54672;46.096;14.470;2022-11-14T09:25:56;10.21;89.89
67868;SHT31;54672;46.096;14.470;2022-11-14T09:28:24;10.38;88.91
67868;SHT31;54672;46.096;14.470;2022-11-14T09:30:50;9.95;88.72
67868;SHT31;54672;46.096;14.470;2022-11-14T09:33:15;9.93;88.67
67868;SHT31;54672;46.096;14.470;2022-11-14T09:35:41;10.27;87.58
67868;SHT31;54672;46.096;14.470;2022-11-14T09:38:09;11.02;86.81
67868;SHT31;54672;46.096;14.470;2022-11-14T09:48:44;11.44;83.52
67868;SHT31;54672;46.096;14.470;2022-11-14T09:51:15;11.42;83.46
67868;SHT31;54672;46.096;14.470;2022-11-14T09:53:52;11.20;83.65
67868;SHT31;54672;46.096;14.470;2022-11-14T09:56:24;10.94;84.64
67868;SHT31;54672;46.096;14.470;2022-11-14T09:58:51;11.54;82.98
67868;SHT31;54672;46.096;14.470;2022-11-14T10:01:42;11.09;84.14
67868;SHT31;54672;46.096;14.470;2022-11-14T10:15:36;12.34;79.63
67868;SHT31;54672;46.096;14.470;2022-11-14T10:20:53;10.55;84.59
67868;SHT31;54672;46.096;14.470;2022-11-14T10:26:28;11.14;83.46
67868;SHT31;54672;46.096;14.470;2022-11-14T10:34:07;11.43;81.88
67868;SHT31;54672;46.096;14.470;2022-11-14T10:36:44;11.36;82.28
67868;SHT31;54672;46.096;14.470;2022-11-14T10:39:25;11.37;82.47
67868;SHT31;54672;46.096;14.470;2022-11-14T10:41:58;11.36;82.33
67868;SHT31;54672;46.096;14.470;2022-11-14T10:44:31;11.25;82.99
67868;SHT31;54672;46.096;14.470;2022-11-14T10:47:06;11.22;82.97
67868;SHT31;54672;46.096;14.470;2022-11-14T10:49:35;11.18;83.03
67868;SHT31;54672;46.096;14.470;2022-11-14T10:52:09;11.23;82.85
67868;SHT31;54672;46.096;14.470;2022-11-14T10:54:55;11.39;82.07
67868;SHT31;54672;46.096;14.470;2022-11-14T10:57:24;11.60;81.36
67868;SHT31;54672;46.096;14.470;2022-11-14T10:59:50;11.69;80.37
67868;SHT31;54672;46.096;14.470;2022-11-14T11:02:16;11.69;80.29
67868;SHT31;54672;46.096;14.470;2022-11-14T11:04:43;11.23;81.91
67868;SHT31;54672;46.096;14.470;2022-11-14T11:09:39;11.59;81.94
67868;SHT31;54672;46.096;14.470;2022-11-14T11:12:39;11.74;80.95
67868;SHT31;54672;46.096;14.470;2022-11-14T11:15:16;11.71;80.31
67868;SHT31;54672;46.096;14.470;2022-11-14T11:18:00;11.69;81.02
67868;SHT31;54672;46.096;14.470;2022-11-14T11:25:31;11.80;80.04
67868;SHT31;54672;46.096;14.470;2022-11-14T11:28:20;11.18;81.90
67868;SHT31;54672;46.096;14.470;2022-11-14T11:30:56;11.25;82.81
67868;SHT31;54672;46.096;14.470;2022-11-14T11:33:24;11.52;80.72
67868;SHT31;54672;46.096;14.470;2022-11-14T11:35:54;11.53;81.02
67868;SHT31;54672;46.096;14.470;2022-11-14T11:38:21;11.43;81.43
67868;SHT31;54672;46.096;14.470;2022-11-14T11:40:50;11.37;82.18
67868;SHT31;54672;46.096;14.470;2022-11-14T11:45:52;11.37;82.18
67868;SHT31;54672;46.096;14.470;2022-11-14T11:48:23;11.43;81.50
67868;SHT31;54672;46.096;14.470;2022-11-14T11:50:53;11.16;82.67
67868;SHT31;54672;46.096;14.470;2022-11-14T11:53:33;11.40;82.31
67868;SHT31;54672;46.096;14.470;2022-11-14T11:56:08;11.69;81.31
67868;SHT31;54672;46.096;14.470;2022-11-14T11:58:47;11.97;80.00
67868;SHT31;54672;46.096;14.470;2022-11-14T12:01:14;11.98;80.71
67868;SHT31;54672;46.096;14.470;2022-11-14T12:03:45;11.95;80.53
67868;SHT31;54672;46.096;14.470;2022-11-14T12:06:22;11.70;81.59
67868;SHT31;54672;46.096;14.470;2022-11-14T12:11:24;11.71;81.56
67868;SHT31;54672;46.096;14.470;2022-11-14T12:25:17;11.23;83.35
67868;SHT31;54672;46.096;14.470;2022-11-14T12:30:46;11.04;84.27
67868;SHT31;54672;46.096;14.470;2022-11-14T12:33:24;10.88;83.95
67868;SHT31;54672;46.096;14.470;2022-11-14T12:35:54;10.81;84.70
67868;SHT31;54672;46.096;14.470;2022-11-14T12:38:21;10.72;85.15
67868;SHT31;54672;46.096;14.470;2022-11-14T12:40:50;10.81;85.46
67868;SHT31;54672;46.096;14.470;2022-11-14T12:43:46;10.77;85.45
67868;SHT31;54672;46.096;14.470;2022-11-14T12:46:12;10.84;85.19
67868;SHT31;54672;46.096;14.470;2022-11-14T12:48:41;11.01;84.43
67868;SHT31;54672;46.096;14.470;2022-11-14T12:53:52;11.19;83.55
67868;SHT31;54672;46.096;14.470;2022-11-14T12:58:55;11.37;82.90
67868;SHT31;54672;46.096;14.470;2022-11-14T13:10:22;11.85;82.28
67868;SHT31;54672;46.096;14.470;2022-11-14T13:13:07;11.91;82.41
67868;SHT31;54672;46.096;14.470;2022-11-14T13:15:56;11.83;82.12
67868;SHT31;54672;46.096;14.470;2022-11-14T13:19:11;11.77;82.16
67868;SHT31;54672;46.096;14.470;2022-11-14T13:27:34;11.15;83.80
67868;SHT31;54672;46.096;14.470;2022-11-14T13:30:03;10.96;84.68
67868;SHT31;54672;46.096;14.470;2022-11-14T13:32:52;11.04;85.06
67868;SHT31;54672;46.096;14.470;2022-11-14T13:38:22;11.19;84.73
67868;SHT31;54672;46.096;14.470;2022-11-14T13:49:21;11.26;86.55
67868;SHT31;54672;46.096;14.470;2022-11-14T13:51:53;11.19;86.78
67868;SHT31;54672;46.096;14.470;2022-11-14T13:54:19;11.19;87.14
67868;SHT31;54672;46.096;14.470;2022-11-14T14:22:34;10.96;91.13
67868;SHT31;54672;46.096;14.470;2022-11-14T14:25:22;10.94;91.62
67868;SHT31;54672;46.096;14.470;2022-11-14T14:30:24;10.78;92.91
67868;SHT31;54672;46.096;14.470;2022-11-14T14:33:08;10.75;93.23
67868;SHT31;54672;46.096;14.470;2022-11-14T14:35:35;10.71;92.79
67868;SHT31;54672;46.096;14.470;2022-11-14T14:38:02;10.65;92.96
67868;SHT31;54672;46.096;14.470;2022-11-14T14:40:32;10.61;93.50
67868;SHT31;54672;46.096;14.470;2022-11-14T14:43:00;10.57;94.10
67868;SHT31;54672;46.096;14.470;2022-11-14T14:45:28;10.55;94.56
67868;SHT31;54672;46.096;14.470;2022-11-14T14:48:01;10.57;94.51
67868;SHT31;54672;46.096;14.470;2022-11-14T14:50:36;10.54;94.52
67868;SHT31;54672;46.096;14.470;2022-11-14T14:53:03;10.53;94.60
67868;SHT31;54672;46.096;14.470;2022-11-14T14:55:31;10.51;94.83
67868;SHT31;54672;46.096;14.470;2022-11-14T15:01:07;10.47;94.90
67868;SHT31;54672;46.096;14.470;2022-11-14T15:03:39;10.46;94.81
67868;SHT31;54672;46.096;14.470;2022-11-14T15:06:27;10.41;95.11
67868;SHT31;54672;46.096;14.470;2022-11-14T15:09:02;10.33;95.36
67868;SHT31;54672;46.096;14.470;2022-11-14T15:11:32;10.29;95.00
67868;SHT31;54672;46.096;14.470;2022-11-14T15:13:59;10.18;95.46
67868;SHT31;54672;46.096;14.470;2022-11-14T15:16:26;10.12;95.59
67868;SHT31;54672;46.096;14.470;2022-11-14T15:18:54;10.03;95.87
67868;SHT31;54672;46.096;14.470;2022-11-14T15:24:21;9.96;95.91
67868;SHT31;54672;46.096;14.470;2022-11-14T15:26:48;9.90;96.71
67868;SHT31;54672;46.096;14.470;2022-11-14T15:29:25;9.93;96.86
67868;SHT31;54672;46.096;14.470;2022-11-14T15:32:00;9.95;97.05
67868;SHT31;54672;46.096;14.470;2022-11-14T15:34:36;9.89;97.09
67868;SHT31;54672;46.096;14.470;2022-11-14T15:39:44;9.79;96.79
67868;SHT31;54672;46.096;14.470;2022-11-14T15:44:45;9.72;96.82
67868;SHT31;54672;46.096;14.470;2022-11-14T15:47:17;9.72;96.79
67868;SHT31;54672;46.096;14.470;2022-11-14T15:50:01;9.63;96.85
67868;SHT31;54672;46.096;14.470;2022-11-14T15:52:33;9.62;97.06
67868;SHT31;54672;46.096;14.470;2022-11-14T15:54:59;9.61;97.06
67868;SHT31;54672;46.096;14.470;2022-11-14T15:57:25;9.55;97.28
67868;SHT31;54672;46.096;14.470;2022-11-14T15:59:50;9.52;97.43
67868;SHT31;54672;46.096;14.470;2022-11-14T16:02:30;9.51;97.25
67868;SHT31;54672;46.096;14.470;2022-11-14T16:04:57;9.39;97.28
67868;SHT31;54672;46.096;14.470;2022-11-14T16:07:24;9.42;97.38
67868;SHT31;54672;46.096;14.470;2022-11-14T16:09:49;9.42;97.33
67868;SHT31;54672;46.096;14.470;2022-11-14T16:12:15;9.44;97.41
67868;SHT31;54672;46.096;14.470;2022-11-14T16:14:41;9.42;97.32
67868;SHT31;54672;46.096;14.470;2022-11-14T16:17:14;9.38;97.05
67868;SHT31;54672;46.096;14.470;2022-11-14T16:19:41;9.39;97.11
67868;SHT31;54672;46.096;14.470;2022-11-14T16:22:16;9.38;97.04
67868;SHT31;54672;46.096;14.470;2022-11-14T16:24:42;9.35;96.93
67868;SHT31;54672;46.096;14.470;2022-11-14T16:27:08;9.37;97.17
67868;SHT31;54672;46.096;14.470;2022-11-14T16:29:34;9.37;97.18
67868;SHT31;54672;46.096;14.470;2022-11-14T16:31:59;9.32;97.34
67868;SHT31;54672;46.096;14.470;2022-11-14T16:34:25;9.32;97.50
67868;SHT31;54672;46.096;14.470;2022-11-14T16:36:59;9.38;97.67
67868;SHT31;54672;46.096;14.470;2022-11-14T16:39:24;9.35;97.53
67868;SHT31;54672;46.096;14.470;2022-11-14T16:41:50;9.32;97.67
67868;SHT31;54672;46.096;14.470;2022-11-14T16:44:15;9.30;97.65
67868;SHT31;54672;46.096;14.470;2022-11-14T16:46:43;9.28;97.58
67868;SHT31;54672;46.096;14.470;2022-11-14T16:49:16;9.31;97.66
67868;SHT31;54672;46.096;14.470;2022-11-14T16:51:43;9.34;97.56
67868;SHT31;54672;46.096;14.470;2022-11-14T16:54:11;9.35;97.64
67868;SHT31;54672;46.096;14.470;2022-11-14T16:56:37;9.34;97.78
67868;SHT31;54672;46.096;14.470;2022-11-14T16:59:02;9.37;97.79
67868;SHT31;54672;46.096;14.470;2022-11-14T17:01:28;9.34;97.87
67868;SHT31;54672;46.096;14.470;2022-11-14T17:03:56;9.30;97.78
67868;SHT31;54672;46.096;14.470;2022-11-14T17:06:24;9.32;98.01
67868;SHT31;54672;46.096;14.470;2022-11-14T17:08:53;9.32;97.89
67868;SHT31;54672;46.096;14.470;2022-11-14T17:11:18;9.31;97.78
67868;SHT31;54672;46.096;14.470;2022-11-14T17:13:44;9.30;97.82
67868;SHT31;54672;46.096;14.470;2022-11-14T17:16:09;9.32;97.86
67868;SHT31;54672;46.096;14.470;2022-11-14T17:18:34;9.35;97.83
67868;SHT31;54672;46.096;14.470;2022-11-14T17:21:04;9.32;97.89
67868;SHT31;54672;46.096;14.470;2022-11-14T17:23:30;9.35;97.87
67868;SHT31;54672;46.096;14.470;2022-11-14T17:26:08;9.31;97.94
67868;SHT31;54672;46.096;14.470;2022-11-14T17:28:33;9.32;98.03
67868;SHT31;54672;46.096;14.470;2022-11-14T17:31:04;9.34;98.12
67868;SHT31;54672;46.096;14.470;2022-11-14T17:33:29;9.38;98.02
67868;SHT31;54672;46.096;14.470;2022-11-14T17:35:55;9.39;98.00
67868;SHT31;54672;46.096;14.470;2022-11-14T17:38:20;9.32;97.69
67868;SHT31;54672;46.096;14.470;2022-11-14T17:40:45;9.34;97.91